Time;durP1;ratioP1;P1;durP2;ratioP2;P2;SDS_P1;SDS_P2;PMS_P1;PMS_P2;Temp;Humidity;BMP_temperature;BMP_pressure;BME280_temperature;BME280_humidity;BME280_pressure;Samples;Min_cycle;Max_cycle;Signal;HPM_P1;HPM_P2
2022/01/25 00:26:58;;;;;;;18.27;14.75;;;5.30;99.90;;;;;;6000702;23;20191;-83
2022/01/25 00:29:34;;;;;;;19.80;16.15;;;5.40;99.90;;;;;;5998652;23;20235;-84
2022/01/25 00:32:00;;;;;;;19.80;15.77;;;6.70;99.90;;;;;;6050641;23;20176;-84
2022/01/25 00:34:25;;;;;;;20.60;16.83;;;5.00;99.90;;;;;;6113432;23;20161;-83
2022/01/25 00:36:51;;;;;;;18.13;15.40;;;5.20;99.90;;;;;;6118479;23;20397;-83
2022/01/25 00:39:17;;;;;;;18.70;16.43;;;5.10;99.90;;;;;;6115355;23;20601;-83
2022/01/25 00:41:43;;;;;;;16.40;14.80;;;5.20;99.90;;;;;;6118048;23;20146;-82
2022/01/25 00:44:11;;;;;;;18.80;14.60;;;4.90;99.90;;;;;;6114937;23;20405;-83
2022/01/25 00:46:37;;;;;;;18.15;16.33;;;4.90;99.90;;;;;;6118226;23;20428;-83
2022/01/25 00:49:04;;;;;;;18.83;16.87;;;5.00;99.90;;;;;;6114295;23;20161;-83
2022/01/25 00:54:26;;;;;;;18.80;16.58;;;5.00;99.90;;;;;;6116093;23;20184;-84
2022/01/25 00:56:53;;;;;;;20.75;16.77;;;5.10;99.90;;;;;;6116268;23;20677;-83
2022/01/25 00:59:28;;;;;;;17.90;16.00;;;5.10;99.90;;;;;;6113744;23;20624;-82
2022/01/25 01:01:57;;;;;;;23.40;17.25;;;6.10;99.90;;;;;;6117123;23;20501;-82
2022/01/25 01:04:23;;;;;;;18.60;14.60;;;5.10;99.90;;;;;;6113830;23;20271;-82
2022/01/25 01:06:50;;;;;;;18.92;16.08;;;4.90;99.90;;;;;;6116023;23;20445;-82
2022/01/25 01:09:18;;;;;;;16.95;14.80;;;4.60;99.90;;;;;;6114279;23;20161;-82
2022/01/25 01:11:52;;;;;;;21.70;15.70;;;5.20;99.90;;;;;;6115953;23;20210;-83
2022/01/25 01:33:18;;;;;;;23.83;19.10;;;5.60;99.90;;;;;;6115319;23;20157;-82
2022/01/25 01:43:38;;;;;;;27.77;17.52;;;5.10;99.90;;;;;;6035955;23;20853;-83
2022/01/25 01:48:54;;;;;;;26.30;18.98;;;5.90;99.90;;;;;;6120078;23;20392;-83
2022/01/25 01:53:51;;;;;;;25.58;18.10;;;5.00;99.90;;;;;;6119473;23;20157;-83
2022/01/25 01:56:20;;;;;;;22.83;17.45;;;5.00;99.90;;;;;;6116133;23;20172;-83
2022/01/25 01:58:45;;;;;;;20.75;15.77;;;4.70;99.90;;;;;;6113233;23;20157;-83
2022/01/25 02:01:15;;;;;;;21.43;16.70;;;4.90;99.90;;;;;;6115354;23;20165;-83
2022/01/25 02:03:41;;;;;;;19.42;13.95;;;4.90;99.90;;;;;;6112770;23;20168;-82
2022/01/25 02:06:06;;;;;;;22.13;16.30;;;5.10;99.90;;;;;;6116708;23;20232;-82
2022/01/25 02:08:34;;;;;;;17.73;14.23;;;5.20;99.90;;;;;;6113620;23;20425;-84
2022/01/25 02:11:00;;;;;;;24.02;14.85;;;6.00;99.90;;;;;;6115592;23;20219;-82
2022/01/25 02:13:34;;;;;;;22.88;16.42;;;5.30;99.90;;;;;;6113070;23;20168;-82
2022/01/25 02:16:06;;;;;;;26.55;17.70;;;5.10;99.90;;;;;;6115690;23;20158;-84
2022/01/25 02:24:00;;;;;;;26.25;16.10;;;5.00;99.90;;;;;;6115573;23;20426;-82
2022/01/25 02:26:26;;;;;;;23.17;17.30;;;5.00;99.90;;;;;;6115139;23;20520;-84
2022/01/25 02:28:52;;;;;;;19.13;15.50;;;5.00;99.90;;;;;;6113119;23;20162;-82
2022/01/25 02:31:17;;;;;;;18.37;13.93;;;5.00;99.90;;;;;;6139117;23;20208;-82
2022/01/25 02:33:44;;;;;;;18.50;15.57;;;5.00;99.90;;;;;;6112753;23;20165;-84
2022/01/25 02:36:13;;;;;;;19.92;15.23;;;5.00;99.90;;;;;;6117164;23;20201;-84
2022/01/25 02:38:40;;;;;;;20.50;14.70;;;4.80;99.90;;;;;;6137339;23;20165;-84
2022/01/25 02:41:06;;;;;;;23.90;15.82;;;4.90;99.90;;;;;;6139945;23;20500;-84
2022/01/25 02:43:35;;;;;;;18.70;15.10;;;4.90;99.90;;;;;;6116185;23;20154;-84
2022/01/25 02:48:57;;;;;;;20.25;16.73;;;4.90;99.90;;;;;;6116966;23;20200;-84
2022/01/25 02:51:27;;;;;;;24.73;16.90;;;4.70;99.90;;;;;;6141645;23;20236;-82
2022/01/25 02:53:53;;;;;;;28.83;16.42;;;4.90;99.90;;;;;;6139703;23;20161;-82
2022/01/25 02:56:20;;;;;;;22.08;17.85;;;4.80;99.90;;;;;;6117505;23;20502;-82
2022/01/25 02:58:46;;;;;;;23.00;17.15;;;5.00;99.90;;;;;;6139764;23;20213;-83
2022/01/25 03:01:13;;;;;;;26.58;18.35;;;5.50;99.90;;;;;;6141876;23;20192;-82
2022/01/25 03:03:39;;;;;;;17.02;13.93;;;6.80;99.90;;;;;;6116583;23;20678;-83
2022/01/25 03:06:05;;;;;;;22.42;15.77;;;5.00;99.90;;;;;;6119084;23;20232;-82
2022/01/25 03:08:31;;;;;;;25.63;17.13;;;4.40;99.90;;;;;;6139728;23;20209;-82
2022/01/25 03:10:57;;;;;;;22.55;15.68;;;3.70;99.90;;;;;;6118826;23;20752;-83
2022/01/25 03:13:29;;;;;;;22.03;16.33;;;4.80;99.90;;;;;;6116869;23;20156;-82
2022/01/25 03:16:00;;;;;;;27.40;18.40;;;4.80;99.90;;;;;;6141789;23;20388;-83
2022/01/25 03:21:04;;;;;;;22.27;17.33;;;5.40;99.90;;;;;;6128654;23;20141;-84
2022/01/25 03:23:31;;;;;;;30.73;17.30;;;4.70;99.90;;;;;;6139407;23;20169;-81
2022/01/25 03:25:58;;;;;;;20.83;16.95;;;4.60;99.90;;;;;;6118720;23;20161;-83
2022/01/25 03:28:24;;;;;;;22.63;17.15;;;4.60;99.90;;;;;;6116497;23;20233;-81
2022/01/25 03:30:50;;;;;;;23.63;15.18;;;4.70;99.90;;;;;;6122352;23;20673;-84
2022/01/25 03:33:17;;;;;;;22.00;15.52;;;4.60;99.90;;;;;;6114850;23;20160;-82
2022/01/25 03:35:44;;;;;;;18.52;13.63;;;4.80;99.90;;;;;;6116438;23;20165;-83
2022/01/25 03:38:10;;;;;;;23.27;15.77;;;5.00;99.90;;;;;;6115277;23;20487;-82
2022/01/25 03:40:36;;;;;;;28.38;17.20;;;5.70;99.90;;;;;;6116687;23;20208;-83
2022/01/25 03:43:05;;;;;;;24.97;18.50;;;4.90;99.90;;;;;;6115304;23;20595;-83
2022/01/25 03:45:33;;;;;;;25.35;16.15;;;4.80;99.90;;;;;;6117203;23;20196;-82
2022/01/25 03:49:48;;;;;;;21.75;15.60;;;5.20;99.90;;;;;;6116255;23;20149;-83
2022/01/25 03:50:48;;;;;;;25.02;17.40;;;5.20;99.90;;;;;;6117942;23;20189;-84
2022/01/25 03:53:15;;;;;;;26.00;17.05;;;4.40;99.90;;;;;;6109800;23;20161;-83
2022/01/25 03:55:41;;;;;;;29.05;16.73;;;4.10;99.90;;;;;;6114218;23;20157;-82
2022/01/25 03:58:07;;;;;;;24.17;17.05;;;4.50;99.90;;;;;;6110529;23;20220;-82
2022/01/25 04:00:35;;;;;;;25.27;15.45;;;4.60;99.90;;;;;;6112141;23;20173;-82
2022/01/25 04:03:09;;;;;;;24.45;16.15;;;4.80;99.90;;;;;;6112749;23;20542;-87
2022/01/25 04:05:49;;;;;;;23.40;15.02;;;4.40;99.90;;;;;;6116081;23;20211;-90
2022/01/25 04:08:17;;;;;;;20.00;14.63;;;4.40;99.90;;;;;;6118932;23;20157;-88
2022/01/25 04:10:43;;;;;;;26.27;17.17;;;4.50;99.90;;;;;;6125688;23;20192;-87
2022/01/25 04:13:09;;;;;;;26.40;16.70;;;4.40;99.90;;;;;;6117454;23;20165;-85
2022/01/25 04:15:40;;;;;;;25.58;18.60;;;4.20;99.90;;;;;;6120952;23;20153;-90
2022/01/25 04:18:24;;;;;;;25.33;16.50;;;4.30;99.90;;;;;;6119971;23;20608;-88
2022/01/25 04:21:08;;;;;;;21.80;13.30;;;4.30;99.90;;;;;;6095570;23;20243;-88
2022/01/25 04:26:18;;;;;;;25.38;17.13;;;4.50;99.90;;;;;;6118920;23;20165;-87
2022/01/25 04:28:44;;;;;;;24.57;16.50;;;4.50;99.90;;;;;;6123337;23;20605;-89
2022/01/25 04:31:09;;;;;;;22.63;16.03;;;4.30;99.90;;;;;;6119670;23;20230;-89
2022/01/25 04:33:42;;;;;;;21.67;15.70;;;4.20;99.90;;;;;;6124545;23;20463;-88
2022/01/25 04:49:37;;;;;;;29.90;16.67;;;4.60;99.90;;;;;;6121070;23;20221;-87
2022/01/25 04:52:07;;;;;;;22.48;13.32;;;4.30;99.90;;;;;;6116605;23;20169;-87
2022/01/25 04:57:30;;;;;;;21.05;15.68;;;4.60;99.90;;;;;;6127329;23;20526;-85
2022/01/25 05:00:04;;;;;;;24.90;16.40;;;4.70;99.90;;;;;;6117259;23;20248;-87
2022/01/25 05:05:08;;;;;;;22.65;15.38;;;4.50;99.90;;;;;;6129613;23;20145;-86
2022/01/25 05:07:46;;;;;;;25.35;15.52;;;4.40;99.90;;;;;;6115430;23;20168;-86
2022/01/25 05:10:12;;;;;;;22.73;14.98;;;4.80;99.90;;;;;;6093801;23;20647;-86
2022/01/25 05:12:50;;;;;;;26.07;15.80;;;4.40;99.90;;;;;;6115735;23;20161;-86
2022/01/25 05:15:38;;;;;;;23.23;15.85;;;4.40;99.90;;;;;;6120806;23;20140;-86
2022/01/25 05:18:14;;;;;;;20.65;15.02;;;4.40;99.90;;;;;;6116408;23;20157;-86
2022/01/25 05:23:24;;;;;;;25.00;17.13;;;4.50;99.90;;;;;;6117252;23;20541;-86
2022/01/25 05:25:50;;;;;;;21.30;15.55;;;4.40;99.90;;;;;;6121336;23;20608;-86
2022/01/25 05:28:16;;;;;;;29.47;15.47;;;4.40;99.90;;;;;;6123437;23;20153;-85
2022/01/25 05:30:41;;;;;;;24.50;15.80;;;4.50;99.90;;;;;;6111571;23;20573;-81
2022/01/25 05:33:07;;;;;;;25.40;18.30;;;4.50;99.90;;;;;;6117955;23;20864;-82
2022/01/25 05:35:33;;;;;;;23.47;14.33;;;4.20;99.90;;;;;;6116513;23;20213;-81
2022/01/25 05:37:59;;;;;;;24.13;15.93;;;4.50;99.90;;;;;;6117257;23;20405;-81
2022/01/25 05:40:40;;;;;;;21.93;15.83;;;4.30;99.90;;;;;;6113916;23;20165;-82
2022/01/25 05:48:11;;;;;;;29.55;17.05;;;4.20;99.90;;;;;;6128245;23;20176;-81
2022/01/25 05:50:37;;;;;;;27.55;16.48;;;4.40;99.90;;;;;;6116094;23;20648;-81
2022/01/25 05:53:03;;;;;;;27.87;17.10;;;4.30;99.90;;;;;;6119210;23;20164;-82
2022/01/25 05:55:29;;;;;;;25.10;16.58;;;4.40;99.90;;;;;;6116620;23;20162;-83
2022/01/25 05:57:55;;;;;;;24.40;16.53;;;4.40;99.90;;;;;;6115680;23;20229;-82
2022/01/25 06:00:21;;;;;;;24.00;16.40;;;4.40;99.90;;;;;;6118301;23;20157;-82
2022/01/25 06:02:52;;;;;;;26.27;16.37;;;4.20;99.90;;;;;;6116200;23;20316;-82
2022/01/25 06:05:18;;;;;;;24.98;17.13;;;4.40;99.90;;;;;;6117710;23;20365;-80
2022/01/25 06:07:44;;;;;;;30.60;16.70;;;4.50;99.90;;;;;;6112081;23;20179;-81
2022/01/25 06:10:09;;;;;;;25.20;16.50;;;4.20;99.90;;;;;;6117200;23;20440;-82
2022/01/25 06:12:35;;;;;;;21.97;17.43;;;4.30;99.90;;;;;;6115270;23;20472;-82
2022/01/25 06:15:01;;;;;;;29.40;16.50;;;4.30;99.90;;;;;;6115577;23;20578;-80
2022/01/25 06:17:26;;;;;;;23.37;16.30;;;4.60;99.90;;;;;;6113053;23;20476;-82
2022/01/25 06:19:52;;;;;;;21.80;15.03;;;5.10;99.90;;;;;;6116989;23;20150;-81
2022/01/25 06:22:18;;;;;;;22.83;15.93;;;4.40;99.90;;;;;;6114077;23;20221;-82
2022/01/25 06:24:44;;;;;;;23.23;15.93;;;4.90;99.90;;;;;;6117245;23;20153;-84
2022/01/25 06:27:12;;;;;;;25.10;15.67;;;4.30;99.90;;;;;;6116390;23;20157;-82
2022/01/25 06:29:38;;;;;;;28.33;15.93;;;3.90;99.90;;;;;;6135294;23;20199;-81
2022/01/25 06:32:04;;;;;;;26.93;16.07;;;5.20;99.90;;;;;;6175158;23;20364;-80
2022/01/25 06:34:30;;;;;;;25.80;15.75;;;4.60;99.90;;;;;;6177031;23;20194;-82
2022/01/25 06:36:56;;;;;;;29.27;16.60;;;4.40;99.90;;;;;;6175000;23;20159;-84
2022/01/25 06:39:21;;;;;;;23.17;16.67;;;4.40;99.90;;;;;;6151712;23;20164;-82
2022/01/25 06:41:47;;;;;;;32.37;18.90;;;4.40;99.90;;;;;;6176558;23;20159;-82
2022/01/25 06:44:13;;;;;;;29.37;17.80;;;4.40;99.90;;;;;;6149492;23;20175;-79
2022/01/25 06:46:38;;;;;;;30.90;18.23;;;4.30;99.90;;;;;;6177396;23;20663;-81
2022/01/25 06:49:04;;;;;;;25.90;17.90;;;4.60;99.90;;;;;;6174557;23;20190;-82
2022/01/25 06:51:30;;;;;;;26.23;18.40;;;4.00;99.90;;;;;;6150246;23;20204;-82
2022/01/25 06:53:56;;;;;;;28.40;15.13;;;5.60;99.90;;;;;;6174737;23;20457;-81
2022/01/25 06:56:22;;;;;;;27.23;16.17;;;4.30;99.90;;;;;;6176442;23;20156;-80
2022/01/25 06:58:48;;;;;;;26.17;17.00;;;4.30;99.90;;;;;;6174644;23;20387;-82
2022/01/25 07:01:14;;;;;;;29.77;18.60;;;4.40;99.90;;;;;;6176172;23;20152;-81
2022/01/25 07:03:39;;;;;;;30.63;18.30;;;4.70;99.90;;;;;;6147473;23;20244;-81
2022/01/25 07:06:05;;;;;;;32.13;19.17;;;;;;;;;;6149607;23;20160;-82
2022/01/25 07:08:31;;;;;;;34.90;21.10;;;4.30;99.90;;;;;;6148301;23;20160;-81
2022/01/25 07:10:57;;;;;;;27.80;17.57;;;4.40;99.90;;;;;;6175843;23;20233;-81
2022/01/25 07:13:22;;;;;;;26.97;17.40;;;4.30;99.90;;;;;;6176786;23;20148;-81
2022/01/25 07:15:48;;;;;;;27.63;16.53;;;5.00;99.90;;;;;;6176200;23;20155;-83
2022/01/25 07:18:15;;;;;;;26.30;17.17;;;4.20;99.90;;;;;;6174194;23;20619;-81
2022/01/25 07:20:41;;;;;;;26.63;15.70;;;4.20;99.90;;;;;;6149656;23;20511;-81
2022/01/25 07:23:06;;;;;;;26.10;16.30;;;4.30;99.90;;;;;;6174022;23;20159;-80
2022/01/25 07:25:32;;;;;;;30.43;17.80;;;4.30;99.90;;;;;;6169472;23;20390;-82
2022/01/25 07:27:58;;;;;;;27.48;17.85;;;4.60;99.90;;;;;;6145509;23;20207;-80
2022/01/25 07:30:24;;;;;;;27.50;17.07;;;5.00;99.90;;;;;;6171730;23;20615;-81
2022/01/25 07:32:49;;;;;;;28.37;17.73;;;4.30;99.90;;;;;;6174065;23;20611;-83
2022/01/25 07:35:15;;;;;;;31.20;20.07;;;4.20;99.90;;;;;;6147124;23;20174;-80
2022/01/25 07:37:41;;;;;;;30.47;18.33;;;4.50;99.90;;;;;;6174747;23;20152;-82
2022/01/25 07:40:07;;;;;;;29.90;20.17;;;4.20;99.90;;;;;;6171632;23;20462;-83
2022/01/25 07:42:36;;;;;;;30.25;18.33;;;4.20;99.90;;;;;;6147134;23;20823;-81
2022/01/25 07:45:07;;;;;;;29.23;17.80;;;4.40;99.90;;;;;;6172233;23;20178;-82
2022/01/25 07:47:34;;;;;;;30.70;19.25;;;4.30;99.90;;;;;;6147472;23;20148;-82
2022/01/25 07:50:00;;;;;;;30.40;18.88;;;4.30;99.90;;;;;;6139983;23;20164;-82
2022/01/25 07:52:26;;;;;;;35.20;19.67;;;4.40;99.90;;;;;;6148732;23;20155;-82
2022/01/25 07:54:51;;;;;;;31.43;20.53;;;4.40;99.90;;;;;;6173967;23;20152;-82
2022/01/25 07:57:17;;;;;;;34.63;19.67;;;5.00;99.90;;;;;;6172196;23;20602;-81
2022/01/25 07:59:43;;;;;;;32.10;17.97;;;4.40;99.90;;;;;;6173545;23;20156;-82
2022/01/25 08:02:14;;;;;;;29.90;18.70;;;4.40;99.90;;;;;;6171356;23;20160;-81
2022/01/25 08:04:40;;;;;;;29.52;18.90;;;5.10;99.90;;;;;;6174076;23;20140;-82
2022/01/25 08:07:06;;;;;;;32.60;19.02;;;4.50;99.90;;;;;;6171819;23;20155;-82
2022/01/25 08:09:31;;;;;;;29.40;16.73;;;4.60;99.90;;;;;;6147913;23;20218;-81
2022/01/25 08:11:57;;;;;;;29.33;19.67;;;4.40;99.90;;;;;;6171668;23;20335;-82
2022/01/25 08:14:23;;;;;;;37.57;20.00;;;4.30;99.90;;;;;;6170811;23;20537;-82
2022/01/25 08:16:50;;;;;;;31.63;19.10;;;5.70;99.90;;;;;;6143779;23;20171;-81
2022/01/25 08:19:17;;;;;;;31.38;19.27;;;5.50;99.90;;;;;;6173350;23;20524;-80
2022/01/25 08:21:43;;;;;;;33.20;21.77;;;5.70;99.90;;;;;;6148045;23;20163;-81
2022/01/25 08:24:14;;;;;;;34.75;19.85;;;4.60;99.90;;;;;;6149869;23;20141;-81
2022/01/25 08:26:43;;;;;;;33.97;19.63;;;4.60;99.90;;;;;;6149657;23;20156;-83
2022/01/25 08:29:09;;;;;;;33.13;20.38;;;4.70;99.90;;;;;;6177362;23;20423;-81
2022/01/25 08:31:36;;;;;;;30.38;17.88;;;4.50;99.90;;;;;;6176078;23;20176;-81
2022/01/25 08:34:02;;;;;;;31.63;16.75;;;4.80;99.90;;;;;;6150838;23;20243;-82
2022/01/25 08:36:28;;;;;;;24.63;17.33;;;4.60;99.90;;;;;;6177508;23;20187;-81
2022/01/25 08:38:54;;;;;;;24.17;16.77;;;4.40;99.90;;;;;;6176467;23;20383;-80
2022/01/25 08:41:20;;;;;;;32.60;20.70;;;4.50;99.90;;;;;;6151171;23;20457;-81
2022/01/25 08:43:48;;;;;;;35.90;19.83;;;5.20;99.90;;;;;;6175975;23;20528;-80
2022/01/25 08:46:15;;;;;;;28.83;18.20;;;4.60;99.90;;;;;;6177830;23;20661;-81
2022/01/25 08:48:40;;;;;;;38.50;21.48;;;4.40;99.90;;;;;;6174797;23;20195;-80
2022/01/25 08:51:07;;;;;;;32.77;19.53;;;4.40;99.90;;;;;;6177167;23;20176;-80
2022/01/25 08:53:35;;;;;;;28.52;16.70;;;4.40;99.90;;;;;;6150075;23;20156;-80
2022/01/25 08:56:01;;;;;;;29.23;19.52;;;6.70;99.90;;;;;;6176844;23;20159;-79
2022/01/25 08:58:27;;;;;;;32.60;19.13;;;4.90;99.90;;;;;;6175277;23;20230;-80
2022/01/25 09:00:53;;;;;;;32.70;19.20;;;4.70;99.90;;;;;;6150255;23;20168;-81
2022/01/25 09:03:18;;;;;;;32.75;21.05;;;4.60;99.90;;;;;;6175783;23;20391;-80
2022/01/25 09:05:44;;;;;;;33.20;19.70;;;4.60;99.90;;;;;;6176911;23;20180;-81
2022/01/25 09:08:19;;;;;;;33.80;21.13;;;4.80;99.90;;;;;;6174555;23;20728;-79
2022/01/25 09:11:01;;;;;;;33.38;20.05;;;4.90;99.90;;;;;;6176504;23;20271;-79
2022/01/25 09:13:29;;;;;;;31.75;19.70;;;4.80;99.90;;;;;;6140708;23;20208;-80
2022/01/25 09:15:55;;;;;;;32.40;21.17;;;5.00;99.90;;;;;;6150100;23;20214;-80
2022/01/25 09:18:22;;;;;;;37.40;21.00;;;4.70;99.90;;;;;;6147925;23;20163;-82
2022/01/25 09:20:47;;;;;;;34.40;20.95;;;4.70;99.90;;;;;;6145525;23;20286;-79
2022/01/25 09:23:16;;;;;;;39.23;20.63;;;4.90;99.90;;;;;;6176604;23;20576;-80
2022/01/25 09:25:42;;;;;;;36.17;21.85;;;4.70;99.90;;;;;;6147739;23;20164;-79
2022/01/25 09:28:08;;;;;;;32.43;19.67;;;5.60;99.90;;;;;;6176358;23;20726;-79
2022/01/25 09:30:33;;;;;;;37.10;21.77;;;5.10;99.90;;;;;;6174318;23;20271;-80
2022/01/25 09:33:00;;;;;;;36.47;21.07;;;5.10;99.90;;;;;;6175897;23;20687;-80
2022/01/25 09:35:26;;;;;;;35.78;21.75;;;5.30;99.90;;;;;;6174583;23;20372;-80
2022/01/25 09:37:52;;;;;;;35.75;21.40;;;5.20;99.90;;;;;;6175756;23;20148;-80
2022/01/25 09:40:20;;;;;;;44.27;23.93;;;5.60;99.90;;;;;;6174218;23;20156;-83
2022/01/25 09:42:50;;;;;;;39.53;21.45;;;4.80;99.90;;;;;;6177344;23;20209;-82
2022/01/25 09:45:17;;;;;;;39.42;21.85;;;5.20;99.90;;;;;;6175816;23;20151;-82
2022/01/25 09:47:42;;;;;;;37.08;21.02;;;5.00;99.90;;;;;;6176456;23;20252;-81
2022/01/25 09:50:08;;;;;;;36.20;20.10;;;5.00;99.90;;;;;;6174338;23;20208;-84
2022/01/25 09:52:35;;;;;;;33.73;20.90;;;5.00;99.90;;;;;;6150206;23;20487;-83
2022/01/25 09:55:01;;;;;;;39.55;21.27;;;5.00;99.90;;;;;;6175413;23;20376;-84
2022/01/25 09:57:28;;;;;;;34.42;21.20;;;5.10;99.90;;;;;;6176834;23;20246;-82
2022/01/25 09:59:55;;;;;;;36.55;21.20;;;4.90;99.90;;;;;;6147327;23;20261;-83
2022/01/25 10:05:37;;;;;;;42.05;24.63;;;4.80;99.90;;;;;;6054075;23;20608;-81
2022/01/25 10:08:20;;;;;;;40.38;24.20;;;4.90;99.90;;;;;;6167195;23;20463;-86
2022/01/25 10:10:49;;;;;;;33.55;20.30;;;4.80;99.90;;;;;;6146695;23;20705;-84
2022/01/25 10:13:23;;;;;;;35.57;21.27;;;5.00;99.90;;;;;;6146844;23;20174;-84
2022/01/25 10:15:51;;;;;;;31.02;20.60;;;5.00;99.90;;;;;;6147170;23;20421;-84
2022/01/25 10:18:21;;;;;;;38.95;23.05;;;4.90;99.90;;;;;;6173372;23;20158;-84
2022/01/25 10:20:48;;;;;;;33.92;20.83;;;5.10;99.90;;;;;;6173313;23;20746;-81
2022/01/25 10:23:24;;;;;;;35.95;22.17;;;5.10;99.90;;;;;;6173785;23;20211;-86
2022/01/25 10:25:53;;;;;;;36.60;22.20;;;5.50;99.90;;;;;;6151141;23;20155;-88
2022/01/25 10:28:24;;;;;;;35.55;22.70;;;4.80;99.90;;;;;;6178337;23;20152;-87
2022/01/25 10:30:59;;;;;;;35.10;21.13;;;4.90;99.90;;;;;;6179566;23;20195;-86
2022/01/25 10:33:31;;;;;;;41.35;23.23;;;5.20;99.90;;;;;;6176953;23;20393;-87
2022/01/25 10:36:10;;;;;;;36.05;22.48;;;4.80;99.90;;;;;;6179852;23;20156;-86
2022/01/25 10:38:36;;;;;;;38.40;22.42;;;4.90;99.90;;;;;;6176978;23;20148;-87
2022/01/25 10:41:11;;;;;;;40.20;23.50;;;5.10;99.90;;;;;;6177277;23;20497;-89
2022/01/25 10:43:39;;;;;;;38.33;21.50;;;4.80;99.90;;;;;;6175163;23;20387;-88
2022/01/25 10:46:12;;;;;;;32.20;20.65;;;5.20;99.90;;;;;;6176842;23;20213;-83
2022/01/25 10:48:42;;;;;;;35.30;22.75;;;6.10;99.90;;;;;;6171039;23;20236;-85
2022/01/25 10:51:14;;;;;;;37.90;23.30;;;5.50;99.90;;;;;;6173165;23;20253;-85
2022/01/25 10:53:40;;;;;;;36.45;24.02;;;5.60;99.90;;;;;;6173311;23;20220;-85
2022/01/25 10:56:07;;;;;;;41.50;23.70;;;5.10;99.90;;;;;;6174065;23;20202;-84
2022/01/25 10:58:41;;;;;;;33.13;21.17;;;5.20;99.90;;;;;;6172558;23;20152;-83
2022/01/25 11:01:10;;;;;;;32.03;22.02;;;5.10;99.90;;;;;;6147333;23;20190;-85
2022/01/25 11:03:41;;;;;;;32.35;20.35;;;4.90;99.90;;;;;;6175061;23;20160;-84
2022/01/25 11:06:13;;;;;;;36.75;20.73;;;5.20;99.90;;;;;;6175519;23;20369;-82
2022/01/25 11:08:40;;;;;;;35.90;22.70;;;5.40;99.90;;;;;;6146883;23;20813;-81
2022/01/25 11:11:10;;;;;;;33.40;22.20;;;5.20;99.90;;;;;;6174002;23;20239;-81
2022/01/25 11:13:38;;;;;;;37.00;22.13;;;5.20;99.90;;;;;;6172066;23;20152;-82
2022/01/25 11:16:07;;;;;;;38.60;22.48;;;5.50;99.90;;;;;;6174142;23;20591;-81
2022/01/25 11:18:34;;;;;;;38.22;22.60;;;5.20;99.90;;;;;;6146792;23;20290;-81
2022/01/25 11:21:04;;;;;;;32.67;20.20;;;5.30;99.90;;;;;;6171783;23;20600;-81
2022/01/25 11:23:35;;;;;;;32.45;20.42;;;5.00;99.90;;;;;;6176465;23;20151;-83
2022/01/25 11:26:04;;;;;;;29.42;19.83;;;5.20;99.90;;;;;;6175017;23;20164;-81
2022/01/25 11:28:32;;;;;;;36.10;22.02;;;5.90;99.90;;;;;;6151673;23;20218;-84
2022/01/25 11:31:12;;;;;;;37.40;22.48;;;5.20;99.90;;;;;;6174715;23;20257;-81
2022/01/25 11:33:45;;;;;;;42.53;24.00;;;5.90;99.90;;;;;;6177353;23;20148;-82
2022/01/25 11:36:12;;;;;;;35.80;21.80;;;5.20;99.90;;;;;;6175243;23;20418;-81
2022/01/25 11:38:44;;;;;;;36.03;20.92;;;5.30;99.90;;;;;;6177581;23;20190;-81
2022/01/25 11:41:12;;;;;;;43.53;23.88;;;5.10;99.90;;;;;;6175149;23;20317;-80
2022/01/25 11:43:38;;;;;;;36.78;24.20;;;5.20;99.90;;;;;;6150533;23;20156;-80
2022/01/25 11:46:07;;;;;;;39.58;25.08;;;5.60;99.90;;;;;;6177713;23;20250;-81
2022/01/25 11:48:42;;;;;;;40.45;23.30;;;5.20;99.90;;;;;;6182284;23;20207;-84
2022/01/25 11:51:15;;;;;;;43.10;23.70;;;5.10;99.90;;;;;;6182795;23;20516;-84
2022/01/25 11:53:42;;;;;;;36.88;19.85;;;5.10;99.90;;;;;;6179325;23;20164;-85
2022/01/25 11:56:10;;;;;;;42.67;22.60;;;5.20;99.90;;;;;;6180091;23;20156;-84
2022/01/25 11:58:36;;;;;;;38.20;21.23;;;5.30;99.90;;;;;;6182243;23;20645;-85
2022/01/25 12:01:16;;;;;;;34.20;20.88;;;5.40;99.90;;;;;;6176537;23;20164;-82
2022/01/25 12:03:49;;;;;;;35.50;21.95;;;5.40;99.90;;;;;;6179824;23;20140;-85
2022/01/25 12:06:21;;;;;;;34.53;21.50;;;5.40;99.90;;;;;;6181767;23;20214;-85
2022/01/25 12:12:08;;;;;;;47.17;25.98;;;5.40;99.90;;;;;;6179246;23;20203;-84
2022/01/25 12:14:41;;;;;;;45.25;23.40;;;5.50;99.90;;;;;;6180272;23;20194;-84
2022/01/25 12:17:06;;;;;;;39.78;23.20;;;5.20;99.90;;;;;;6173772;23;20167;-84
2022/01/25 12:19:50;;;;;;;33.40;20.83;;;5.40;99.90;;;;;;6177745;23;20183;-85
2022/01/25 12:22:38;;;;;;;37.60;21.10;;;5.50;99.90;;;;;;6179032;23;20148;-84
2022/01/25 12:25:22;;;;;;;43.03;25.10;;;5.60;99.90;;;;;;6182495;23;20375;-85
2022/01/25 12:28:22;;;;;;;36.67;22.73;;;5.50;99.90;;;;;;6190154;23;20147;-83
2022/01/25 12:51:56;;;;;;;;;;;;;;;;;;;;;
2022/01/25 12:54:58;;;;;;;37.72;21.75;;;5.50;99.90;;;;;;6189867;23;20219;-88
2022/01/25 12:57:37;;;;;;;41.03;22.95;;;5.60;99.90;;;;;;6174100;23;20191;-88
2022/01/25 13:00:27;;;;;;;33.25;21.55;;;5.70;99.90;;;;;;6188223;23;20262;-85
2022/01/25 13:03:26;;;;;;;37.70;24.20;;;5.60;99.90;;;;;;6186852;23;20646;-85
2022/01/25 13:06:14;;;;;;;46.72;23.60;;;6.10;99.90;;;;;;6182300;23;20302;-88
2022/01/25 13:15:25;;;;;;;;;;;;;;;;;;;;;
2022/01/25 13:17:26;;;;;;;42.75;24.20;;;5.50;99.90;;;;;;6176511;23;20155;-87
2022/01/25 13:20:27;;;;;;;47.33;24.02;;;4.80;99.90;;;;;;6189530;23;20167;-87
2022/01/25 13:23:53;;;;;;;56.25;23.30;;;5.80;99.90;;;;;;6186731;23;20159;-87
2022/01/25 13:26:23;;;;;;;43.45;25.52;;;5.70;99.90;;;;;;6183296;23;20153;-82
2022/01/25 13:32:34;;;;;;;39.33;24.48;;;5.70;99.90;;;;;;6186100;23;20237;-85
2022/01/25 13:35:15;;;;;;;47.30;24.75;;;5.70;99.90;;;;;;6182802;23;20226;-86
2022/01/25 13:38:00;;;;;;;42.83;26.88;;;5.70;99.90;;;;;;6177954;23;20156;-88
2022/01/25 13:40:34;;;;;;;45.55;26.27;;;5.70;99.90;;;;;;6181492;23;20143;-88
2022/01/25 13:46:18;;;;;;;42.33;25.23;;;5.70;99.90;;;;;;6182012;23;20172;-82
2022/01/25 13:48:53;;;;;;;48.97;27.60;;;5.70;99.90;;;;;;6182021;23;20211;-85
2022/01/25 13:51:21;;;;;;;49.35;27.27;;;5.80;99.90;;;;;;6178933;23;20283;-88
2022/01/25 13:53:57;;;;;;;53.92;22.17;;;5.70;99.90;;;;;;6180135;23;20152;-88
2022/01/25 13:56:28;;;;;;;46.28;25.35;;;5.70;99.90;;;;;;6180026;23;20155;-89
2022/01/25 13:58:55;;;;;;;45.55;24.77;;;5.20;99.90;;;;;;6181380;23;20148;-88
2022/01/25 14:01:42;;;;;;;54.20;29.50;;;5.70;99.90;;;;;;6182846;23;20175;-90
2022/01/25 14:04:48;;;;;;;42.50;24.17;;;5.70;99.90;;;;;;6184051;23;20179;-88
2022/01/25 14:07:22;;;;;;;45.83;24.48;;;5.70;99.90;;;;;;6179163;23;20460;-90
2022/01/25 14:10:08;;;;;;;46.40;26.20;;;5.60;99.90;;;;;;6176489;23;20155;-88
2022/01/25 14:24:14;;;;;;;42.30;23.23;;;5.50;99.90;;;;;;6195671;23;20158;-89
2022/01/25 14:26:41;;;;;;;43.47;25.25;;;5.50;99.90;;;;;;6187342;23;20183;-84
2022/01/25 14:29:18;;;;;;;47.42;25.02;;;5.50;99.90;;;;;;6187132;23;20166;-82
2022/01/25 14:32:26;;;;;;;46.63;26.50;;;5.50;99.90;;;;;;6184342;23;20540;-90
2022/01/25 14:35:07;;;;;;;44.30;25.00;;;5.40;99.90;;;;;;6173739;23;20156;-90
2022/01/25 14:37:56;;;;;;;49.60;25.70;;;5.30;99.90;;;;;;6181604;23;20144;-85
2022/01/25 14:40:32;;;;;;;50.80;26.77;;;5.40;99.90;;;;;;6187006;23;20163;-90
2022/01/25 14:46:13;;;;;;;50.92;28.05;;;5.50;99.90;;;;;;6177833;23;20258;-85
2022/01/25 14:49:14;;;;;;;44.75;23.08;;;6.20;99.90;;;;;;6197610;23;20139;-84
2022/01/25 14:51:45;;;;;;;46.20;26.67;;;5.40;99.90;;;;;;6190664;23;20202;-86
2022/01/25 14:54:18;;;;;;;38.38;24.27;;;5.30;99.90;;;;;;6192337;23;20155;-85
2022/01/25 14:56:49;;;;;;;43.20;25.40;;;5.50;99.90;;;;;;6187942;23;20226;-85
2022/01/25 15:01:52;;;;;;;40.33;22.92;;;5.30;99.90;;;;;;6200846;23;20202;-86
2022/01/25 15:04:20;;;;;;;40.33;22.75;;;5.20;99.90;;;;;;6189980;23;20156;-81
2022/01/25 15:06:46;;;;;;;40.58;23.17;;;5.30;99.90;;;;;;6189790;23;20159;-83
2022/01/25 15:09:14;;;;;;;47.95;24.40;;;4.90;99.90;;;;;;6193828;23;20220;-88
2022/01/25 15:11:43;;;;;;;41.75;21.73;;;5.20;99.90;;;;;;6189957;23;20188;-87
2022/01/25 15:14:17;;;;;;;38.33;21.70;;;5.10;99.90;;;;;;6191676;23;20163;-84
2022/01/25 15:16:46;;;;;;;43.97;21.40;;;5.00;99.90;;;;;;6190310;23;20159;-86
2022/01/25 15:19:18;;;;;;;36.38;18.70;;;5.10;99.90;;;;;;6192264;23;20152;-87
2022/01/25 15:21:51;;;;;;;37.80;19.88;;;5.20;99.90;;;;;;6189374;23;20233;-83
2022/01/25 15:24:19;;;;;;;42.72;23.10;;;5.40;99.90;;;;;;6185450;23;20137;-88
2022/01/25 15:26:49;;;;;;;34.25;20.42;;;4.40;99.90;;;;;;6183709;23;20215;-86
2022/01/25 15:29:22;;;;;;;38.80;21.33;;;5.00;99.90;;;;;;6186750;23;20132;-84
2022/01/25 15:31:58;;;;;;;36.25;19.88;;;5.00;99.90;;;;;;6185157;23;20571;-86
2022/01/25 15:34:38;;;;;;;40.80;19.67;;;5.00;99.90;;;;;;6185942;23;20147;-84